createdAt,value
2018-10-09T00:01:53.855Z,7.80
2018-10-09T00:04:21.828Z,7.83
2018-10-09T00:06:49.852Z,8.50
2018-10-09T00:09:17.357Z,8.83
2018-10-09T00:11:45.179Z,8.63
2018-10-09T00:14:13.300Z,10.00
2018-10-09T00:16:41.416Z,10.10
2018-10-09T00:19:08.974Z,7.60
2018-10-09T00:21:37.243Z,9.35
2018-10-09T00:24:04.900Z,9.25
2018-10-09T00:26:32.734Z,8.83
2018-10-09T00:29:00.718Z,9.90
2018-10-09T00:31:28.308Z,8.65
2018-10-09T00:33:57.515Z,8.85
2018-10-09T00:36:25.236Z,8.70
2018-10-09T00:38:52.835Z,8.03
2018-10-09T00:41:20.456Z,8.55
2018-10-09T00:43:48.314Z,8.35
2018-10-09T00:46:15.763Z,9.63
2018-10-09T00:48:43.596Z,9.57
2018-10-09T00:51:11.107Z,8.98
2018-10-09T00:53:39.430Z,7.00
2018-10-09T00:56:07.251Z,7.47
2018-10-09T00:58:35.218Z,11.55
2018-10-09T01:01:03.681Z,8.58
2018-10-09T01:03:31.102Z,9.65
2018-10-09T01:05:59.734Z,8.93
2018-10-09T01:08:27.299Z,8.40
2018-10-09T01:10:55.789Z,8.73
2018-10-09T01:13:24.068Z,9.75
2018-10-09T01:15:52.677Z,8.20
2018-10-09T01:18:20.980Z,15.98
2018-10-09T01:20:48.900Z,7.70
2018-10-09T01:23:16.588Z,8.63
2018-10-09T01:25:44.311Z,9.43
2018-10-09T01:28:11.874Z,9.27
2018-10-09T01:30:39.496Z,9.85
2018-10-09T01:33:07.046Z,9.90
2018-10-09T01:35:34.865Z,9.98
2018-10-09T01:38:02.348Z,10.03
2018-10-09T01:40:30.094Z,11.18
2018-10-09T01:42:57.770Z,12.73
2018-10-09T01:45:26.135Z,11.50
2018-10-09T01:47:54.207Z,10.40
2018-10-09T01:50:22.020Z,13.22
2018-10-09T01:52:49.434Z,10.40
2018-10-09T01:55:18.329Z,10.65
2018-10-09T01:57:46.309Z,9.03
2018-10-09T02:00:14.183Z,10.20
2018-10-09T02:02:42.691Z,13.22
2018-10-09T02:05:11.215Z,12.07
2018-10-09T02:07:39.818Z,11.03
2018-10-09T02:10:07.801Z,13.48
2018-10-09T02:12:35.352Z,11.53
2018-10-09T02:15:03.605Z,12.28
2018-10-09T02:17:32.086Z,12.13
2018-10-09T02:20:01.714Z,10.98
2018-10-09T02:22:29.772Z,12.33
2018-10-09T02:24:57.844Z,9.35
2018-10-09T02:27:25.531Z,9.43
2018-10-09T02:29:53.470Z,9.53
2018-10-09T02:32:21.075Z,11.60
2018-10-09T02:34:48.668Z,8.95
2018-10-09T02:37:16.488Z,13.00
2018-10-09T02:39:44.051Z,11.80
2018-10-09T02:42:11.591Z,10.72
2018-10-09T02:44:40.067Z,12.20
2018-10-09T02:47:07.597Z,10.03
2018-10-09T02:49:35.248Z,11.18
2018-10-09T02:52:03.580Z,10.13
2018-10-09T02:54:31.226Z,11.50
2018-10-09T02:56:58.932Z,11.85
2018-10-09T02:59:26.473Z,10.13
2018-10-09T03:01:54.313Z,14.63
2018-10-09T03:04:22.798Z,11.22
2018-10-09T03:06:50.319Z,14.05
2018-10-09T03:09:18.019Z,13.05
2018-10-09T03:11:45.497Z,12.30
2018-10-09T03:14:13.125Z,11.73
2018-10-09T03:16:41.452Z,11.73
2018-10-09T03:19:08.933Z,13.45
2018-10-09T03:21:36.840Z,12.75
2018-10-09T03:24:04.979Z,9.73
2018-10-09T03:26:33.400Z,10.30
2018-10-09T03:29:01.506Z,10.25
2018-10-09T03:31:29.178Z,14.85
2018-10-09T03:33:56.727Z,11.80
2018-10-09T03:36:24.259Z,11.60
2018-10-09T03:38:51.964Z,12.85
2018-10-09T03:41:19.607Z,13.90
2018-10-09T03:43:47.570Z,12.43
2018-10-09T03:46:16.234Z,10.08
2018-10-09T03:48:43.788Z,10.40
2018-10-09T03:51:11.238Z,10.45
2018-10-09T03:53:40.035Z,13.73
2018-10-09T03:56:08.523Z,11.90
2018-10-09T03:58:36.028Z,15.78
2018-10-09T04:01:03.877Z,14.73
2018-10-09T04:03:31.335Z,14.58
2018-10-09T04:05:58.919Z,12.17
2018-10-09T04:08:26.338Z,15.38
2018-10-09T04:10:54.395Z,20.00
2018-10-09T04:13:22.525Z,15.90
2018-10-09T04:15:49.966Z,16.67
2018-10-09T04:18:17.416Z,15.38
2018-10-09T04:20:45.204Z,14.07
2018-10-09T04:23:13.324Z,14.25
2018-10-09T04:25:40.969Z,14.90
2018-10-09T04:28:08.886Z,13.68
2018-10-09T04:30:36.664Z,16.57
2018-10-09T04:33:04.374Z,16.40
2018-10-09T04:35:32.098Z,14.70
2018-10-09T04:38:00.467Z,18.27
2018-10-09T04:40:28.189Z,17.40
2018-10-09T04:42:55.650Z,15.88
2018-10-09T04:45:23.322Z,15.65
2018-10-09T04:47:50.917Z,14.80
2018-10-09T04:50:18.478Z,13.83
2018-10-09T04:52:46.604Z,14.13
2018-10-09T04:55:14.599Z,17.62
2018-10-09T04:57:42.319Z,16.93
2018-10-09T05:00:10.850Z,13.98
2018-10-09T05:02:38.686Z,16.57
2018-10-09T05:05:06.186Z,17.70
2018-10-09T05:07:33.940Z,16.23
2018-10-09T05:10:02.079Z,14.33
2018-10-09T05:12:30.563Z,18.00
2018-10-09T05:14:58.895Z,17.85
2018-10-09T05:17:26.543Z,17.92
2018-10-09T05:19:54.293Z,18.77
2018-10-09T05:22:22.355Z,17.37
2018-10-09T05:24:49.928Z,15.05
2018-10-09T05:27:17.876Z,14.47
2018-10-09T05:29:45.645Z,14.60
2018-10-09T05:32:13.284Z,16.17
2018-10-09T05:34:41.363Z,16.73
2018-10-09T05:37:09.875Z,15.20
2018-10-09T05:39:37.819Z,18.75
2018-10-09T05:42:05.583Z,19.70
2018-10-09T05:44:33.038Z,16.77
2018-10-09T05:47:00.773Z,19.23
2018-10-09T05:49:28.272Z,17.10
2018-10-09T05:51:56.073Z,19.15
2018-10-09T05:54:23.600Z,20.05
2018-10-09T05:56:51.323Z,18.73
2018-10-09T05:59:18.782Z,19.10
2018-10-09T06:01:46.695Z,20.90
2018-10-09T06:04:14.550Z,19.00
2018-10-09T06:06:42.411Z,19.90
2018-10-09T06:09:11.041Z,15.67
2018-10-09T06:11:39.720Z,20.23
2018-10-09T06:14:08.154Z,18.77
2018-10-09T06:16:35.896Z,32.23
2018-10-09T06:19:04.869Z,19.35
2018-10-09T06:21:32.804Z,16.70
2018-10-09T06:24:00.534Z,20.00
2018-10-09T06:26:28.577Z,19.52
2018-10-09T06:28:56.904Z,20.90
2018-10-09T06:31:24.851Z,22.22
2018-10-09T06:33:52.509Z,19.45
2018-10-09T06:36:19.986Z,19.98
2018-10-09T06:38:47.838Z,19.12
2018-10-09T06:41:15.635Z,18.07
2018-10-09T06:43:43.139Z,21.65
2018-10-09T06:46:14.336Z,17.67
2018-10-09T06:48:42.204Z,18.87
2018-10-09T06:51:10.271Z,20.50
2018-10-09T06:53:38.073Z,19.70
2018-10-09T06:56:05.567Z,20.10
2018-10-09T06:58:33.731Z,23.27
2018-10-09T07:01:01.276Z,21.30
2018-10-09T07:03:28.754Z,20.60
2018-10-09T07:05:56.204Z,17.95
2018-10-09T07:08:23.930Z,20.67
2018-10-09T07:10:52.001Z,16.97
2018-10-09T07:13:19.499Z,22.02
2018-10-09T07:15:47.715Z,19.85
2018-10-09T07:18:15.163Z,24.00
2018-10-09T07:20:42.647Z,19.92
2018-10-09T07:23:10.715Z,20.20
2018-10-09T07:25:38.536Z,20.90
2018-10-09T07:28:06.178Z,20.30
2018-10-09T07:30:34.049Z,20.25
2018-10-09T07:33:01.871Z,21.57
2018-10-09T07:35:30.032Z,22.05
2018-10-09T07:37:57.789Z,20.48
2018-10-09T07:40:25.232Z,17.55
2018-10-09T07:42:53.028Z,17.07
2018-10-09T07:45:20.478Z,37.63
2018-10-09T07:47:48.267Z,18.55
2018-10-09T07:50:15.763Z,19.77
2018-10-09T07:52:43.588Z,22.93
2018-10-09T07:55:11.088Z,22.27
2018-10-09T07:57:38.902Z,19.57
2018-10-09T08:00:06.536Z,20.40
2018-10-09T08:02:34.332Z,20.15
2018-10-09T08:05:01.796Z,19.98
2018-10-09T08:07:29.290Z,20.77
2018-10-09T08:09:56.775Z,21.17
2018-10-09T08:12:24.364Z,20.68
2018-10-09T08:14:52.146Z,20.93
2018-10-09T08:17:19.674Z,20.02
2018-10-09T08:19:47.792Z,21.50
2018-10-09T08:22:15.280Z,20.53
2018-10-09T08:24:42.807Z,23.42
2018-10-09T08:27:10.702Z,21.30
2018-10-09T08:29:38.375Z,19.82
2018-10-09T08:32:06.218Z,24.18
2018-10-09T08:34:33.801Z,23.75
2018-10-09T08:37:01.310Z,22.82
2018-10-09T08:39:28.813Z,24.12
2018-10-09T08:41:56.545Z,26.45
2018-10-09T08:44:24.296Z,26.50
2018-10-09T08:46:52.076Z,22.10
2018-10-09T08:49:19.596Z,25.03
2018-10-09T08:51:47.360Z,25.35
2018-10-09T08:54:15.656Z,28.67
2018-10-09T08:56:43.629Z,26.87
2018-10-09T08:59:11.343Z,23.80
2018-10-09T09:01:38.940Z,25.40
2018-10-09T09:04:07.160Z,25.40
2018-10-09T09:06:34.983Z,23.77
2018-10-09T09:09:02.857Z,22.70
2018-10-09T09:11:30.409Z,19.95
2018-10-09T09:13:58.264Z,33.95
2018-10-09T09:16:25.708Z,26.10
2018-10-09T09:18:53.503Z,20.45
2018-10-09T09:21:21.012Z,21.80
2018-10-09T09:23:48.808Z,27.13
2018-10-09T09:26:17.019Z,22.20
2018-10-09T09:28:44.664Z,26.17
2018-10-09T09:31:12.178Z,22.58
2018-10-09T09:33:39.688Z,24.12
2018-10-09T09:36:07.311Z,25.70
2018-10-09T09:38:35.153Z,20.17
2018-10-09T09:41:03.079Z,20.35
2018-10-09T09:43:31.402Z,23.85
2018-10-09T09:45:58.977Z,22.13
2018-10-09T09:48:26.442Z,24.03
2018-10-09T09:50:54.231Z,37.73
2018-10-09T09:53:22.101Z,25.37
2018-10-09T09:55:49.593Z,29.25
2018-10-09T09:58:17.369Z,22.47
2018-10-09T10:00:50.571Z,25.45
2018-10-09T10:03:18.299Z,27.02
2018-10-09T10:05:45.792Z,21.48
2018-10-09T10:08:13.262Z,26.17
2018-10-09T10:10:40.968Z,24.30
2018-10-09T10:13:08.591Z,22.98
2018-10-09T10:15:36.079Z,27.32
2018-10-09T10:18:03.956Z,24.37
2018-10-09T10:20:31.390Z,24.02
2018-10-09T10:22:58.869Z,28.40
2018-10-09T10:25:26.377Z,22.25
2018-10-09T10:27:53.804Z,20.57
2018-10-09T10:30:21.560Z,20.62
2018-10-09T10:32:49.068Z,23.32
2018-10-09T10:35:16.593Z,23.35
2018-10-09T10:37:44.084Z,21.25
2018-10-09T10:40:11.589Z,27.00
2018-10-09T10:42:39.127Z,25.50
2018-10-09T10:45:06.606Z,23.65
2018-10-09T10:47:34.301Z,25.57
2018-10-09T10:50:02.120Z,19.85
2018-10-09T10:52:29.621Z,24.45
2018-10-09T10:54:57.154Z,19.42
2018-10-09T10:57:24.685Z,18.48
2018-10-09T10:59:52.195Z,23.75
2018-10-09T11:02:19.933Z,25.25
2018-10-09T11:04:47.685Z,23.98
2018-10-09T11:07:15.470Z,21.90
2018-10-09T11:09:42.969Z,26.63
2018-10-09T11:12:10.670Z,27.00
2018-10-09T11:14:38.202Z,33.38
2018-10-09T11:17:06.322Z,30.43
2018-10-09T11:22:13.285Z,31.73
2018-10-09T11:24:41.397Z,28.52
2018-10-09T11:27:08.989Z,34.75
2018-10-09T11:29:37.589Z,30.40
2018-10-09T11:32:05.715Z,31.20
2018-10-09T11:34:33.174Z,29.05
2018-10-09T11:37:00.777Z,29.95
2018-10-09T11:39:28.637Z,27.77
2018-10-09T11:41:56.112Z,29.18
2018-10-09T11:44:24.238Z,26.50
2018-10-09T11:46:51.736Z,28.23
2018-10-09T11:49:19.296Z,27.35
2018-10-09T11:51:47.113Z,26.55
2018-10-09T11:54:14.921Z,25.37
2018-10-09T11:56:42.489Z,26.52
2018-10-09T11:59:10.352Z,25.12
2018-10-09T12:01:37.844Z,26.27
2018-10-09T12:04:05.308Z,25.55
2018-10-09T12:06:33.123Z,28.32
2018-10-09T12:09:00.915Z,21.43
2018-10-09T12:11:28.388Z,26.30
2018-10-09T12:13:55.936Z,24.63
2018-10-09T12:16:23.438Z,24.50
2018-10-09T12:18:51.208Z,21.57
2018-10-09T12:21:18.704Z,27.83
2018-10-09T12:23:46.212Z,32.60
2018-10-09T12:26:14.037Z,22.65
2018-10-09T12:28:41.890Z,26.13
2018-10-09T12:31:09.457Z,25.32
2018-10-09T12:33:37.169Z,23.47
2018-10-09T12:36:05.038Z,25.02
2018-10-09T12:38:32.611Z,23.40
2018-10-09T12:41:00.092Z,26.62
2018-10-09T12:43:27.823Z,25.08
2018-10-09T12:45:55.646Z,28.17
2018-10-09T12:48:23.111Z,23.42
2018-10-09T12:50:50.993Z,24.25
2018-10-09T12:53:19.193Z,25.50
2018-10-09T12:55:47.262Z,27.02
2018-10-09T12:58:15.069Z,24.40
2018-10-09T13:00:42.576Z,21.77
2018-10-09T13:03:10.203Z,21.90
2018-10-09T13:05:37.916Z,21.80
2018-10-09T13:08:05.487Z,22.25
2018-10-09T13:10:32.976Z,22.30
2018-10-09T13:13:00.748Z,23.15
2018-10-09T13:15:28.563Z,23.73
2018-10-09T13:17:56.321Z,26.37
2018-10-09T13:20:23.813Z,23.70
2018-10-09T13:22:51.576Z,23.73
2018-10-09T13:25:19.312Z,21.80
2018-10-09T13:27:46.826Z,25.50
2018-10-09T13:30:14.379Z,22.48
2018-10-09T13:32:42.217Z,23.80
2018-10-09T13:35:09.703Z,25.12
2018-10-09T13:37:37.123Z,23.27
2018-10-09T13:40:04.729Z,51.75
2018-10-09T13:42:32.272Z,32.65
2018-10-09T13:44:59.758Z,24.70
2018-10-09T13:47:27.407Z,23.07
2018-10-09T13:49:55.172Z,27.93
2018-10-09T13:52:22.614Z,22.58
2018-10-09T13:54:50.133Z,24.93
2018-10-09T13:57:17.741Z,23.20
2018-10-09T13:59:45.277Z,26.37
2018-10-09T14:02:12.760Z,23.23
2018-10-09T14:04:40.581Z,25.12
2018-10-09T14:07:08.231Z,23.75
2018-10-09T14:09:36.113Z,21.70
2018-10-09T14:12:04.233Z,24.25
2018-10-09T14:14:32.106Z,25.43
2018-10-09T14:16:59.605Z,22.13
2018-10-09T14:19:27.383Z,23.35
2018-10-09T14:21:55.170Z,21.57
2018-10-09T14:24:23.044Z,21.73
2018-10-09T14:26:50.565Z,25.45
2018-10-09T14:29:18.022Z,21.50
2018-10-09T14:31:45.495Z,22.10
2018-10-09T14:34:13.301Z,21.10
2018-10-09T14:36:40.929Z,22.20
2018-10-09T14:39:09.595Z,22.50
2018-10-09T14:41:37.526Z,22.75
2018-10-09T14:44:05.483Z,21.02
2018-10-09T14:46:32.950Z,19.50
2018-10-09T14:49:00.701Z,24.87
2018-10-09T14:51:28.202Z,19.10
2018-10-09T14:53:56.285Z,23.00
2018-10-09T14:56:24.211Z,19.05
2018-10-09T14:58:51.765Z,22.02
2018-10-09T15:01:19.500Z,20.80
2018-10-09T15:03:47.025Z,21.85
2018-10-09T15:06:15.113Z,20.72
2018-10-09T15:08:42.875Z,18.90
2018-10-09T15:11:10.699Z,21.97
2018-10-09T15:13:38.172Z,19.70
2018-10-09T15:16:05.680Z,16.97
2018-10-09T15:18:33.827Z,19.10
2018-10-09T15:21:01.597Z,15.98
2018-10-09T15:23:29.355Z,20.45
2018-10-09T15:25:57.185Z,17.32
2018-10-09T15:28:24.696Z,20.67
2018-10-09T15:30:52.218Z,17.80
2018-10-09T15:33:19.985Z,18.48
2018-10-09T15:35:47.507Z,16.48
2018-10-09T15:38:14.976Z,16.93
2018-10-09T15:40:42.938Z,20.08
2018-10-09T15:43:10.473Z,14.93
2018-10-09T15:45:37.967Z,18.30
2018-10-09T15:48:05.782Z,13.80
2018-10-09T15:50:33.598Z,12.98
2018-10-09T15:53:01.733Z,13.65
2018-10-09T15:55:29.221Z,15.58
2018-10-09T15:57:57.397Z,12.90
2018-10-09T16:00:25.345Z,14.68
2018-10-09T16:02:53.242Z,22.58
2018-10-09T16:05:20.727Z,27.27
2018-10-09T16:07:48.826Z,21.75
2018-10-09T16:10:16.638Z,15.80
2018-10-09T16:12:44.079Z,12.35
2018-10-09T16:15:11.916Z,13.22
2018-10-09T16:17:39.376Z,12.68
2018-10-09T16:20:07.237Z,18.87
2018-10-09T16:22:35.106Z,26.52
2018-10-09T16:25:02.633Z,15.00
2018-10-09T16:27:30.329Z,15.95
2018-10-09T16:29:57.817Z,16.00
2018-10-09T16:32:25.655Z,17.48
2018-10-09T16:34:53.105Z,15.88
2018-10-09T16:37:20.558Z,15.10
2018-10-09T16:39:48.397Z,13.77
2018-10-09T16:42:16.208Z,9.43
2018-10-09T16:44:43.976Z,14.78
2018-10-09T16:47:11.749Z,15.32
2018-10-09T16:49:39.373Z,13.83
2018-10-09T16:52:07.263Z,18.10
2018-10-09T16:54:35.129Z,14.95
2018-10-09T16:57:02.968Z,19.85
2018-10-09T16:59:31.059Z,15.83
2018-10-09T17:01:58.936Z,15.20
2018-10-09T17:04:26.471Z,16.40
2018-10-09T17:06:54.043Z,16.12
2018-10-09T17:09:22.147Z,16.00
2018-10-09T17:11:49.908Z,16.07
2018-10-09T17:14:17.661Z,15.18
2018-10-09T17:16:45.416Z,14.75
2018-10-09T17:19:13.189Z,13.28
2018-10-09T17:21:40.680Z,15.80
2018-10-09T17:24:08.514Z,13.80
2018-10-09T17:26:36.110Z,15.67
2018-10-09T17:29:03.643Z,16.73
2018-10-09T17:31:31.214Z,14.33
2018-10-09T17:33:59.261Z,14.75
2018-10-09T17:36:26.761Z,17.85
2018-10-09T17:38:54.443Z,12.50
2018-10-09T17:41:22.305Z,12.15
2018-10-09T17:43:50.135Z,17.20
2018-10-09T17:46:17.893Z,12.73
2018-10-09T17:48:46.121Z,12.28
2018-10-09T17:51:13.559Z,15.40
2018-10-09T17:53:41.096Z,15.55
2018-10-09T17:56:08.941Z,13.70
2018-10-09T17:58:36.776Z,13.43
2018-10-09T18:01:04.488Z,12.88
2018-10-09T18:03:32.036Z,13.62
2018-10-09T18:05:59.550Z,14.73
2018-10-09T18:08:27.393Z,14.95
2018-10-09T18:10:55.257Z,16.60
2018-10-09T18:13:23.020Z,12.90
2018-10-09T18:15:50.893Z,14.00
2018-10-09T18:18:18.641Z,15.50
2018-10-09T18:20:46.174Z,14.03
2018-10-09T18:23:13.696Z,10.93
2018-10-09T18:25:41.242Z,14.30
2018-10-09T18:28:09.205Z,16.17
2018-10-09T18:30:36.780Z,14.30
2018-10-09T18:33:04.540Z,11.45
2018-10-09T18:35:32.326Z,12.45
2018-10-09T18:38:00.693Z,12.10
2018-10-09T18:40:28.300Z,14.07
2018-10-09T18:42:55.824Z,14.68
2018-10-09T18:45:23.785Z,12.43
2018-10-09T18:47:51.769Z,15.20
2018-10-09T18:50:19.530Z,11.08
2018-10-09T18:52:47.032Z,15.13
2018-10-09T18:55:16.017Z,13.38
2018-10-09T18:57:43.935Z,32.70
2018-10-09T19:00:13.036Z,14.28
2018-10-09T19:02:41.491Z,13.80
2018-10-09T19:05:10.013Z,12.40
2018-10-09T19:07:38.113Z,16.00
2018-10-09T19:10:06.003Z,12.73
2018-10-09T19:12:33.620Z,12.10
2018-10-09T19:15:01.510Z,16.20
2018-10-09T19:17:28.996Z,16.70
2018-10-09T19:19:56.691Z,12.13
2018-10-09T19:22:24.220Z,11.38
2018-10-09T19:24:52.488Z,21.33
2018-10-09T19:27:20.311Z,14.18
2018-10-09T19:29:47.894Z,16.48
2018-10-09T19:32:15.349Z,16.25
2018-10-09T19:34:42.949Z,14.10
2018-10-09T19:37:10.540Z,17.23
2018-10-09T19:39:38.215Z,16.15
2018-10-09T19:42:06.413Z,16.60
2018-10-09T19:44:34.327Z,13.38
2018-10-09T19:47:02.013Z,13.75
2018-10-09T19:49:29.876Z,16.42
2018-10-09T19:51:57.681Z,12.88
2018-10-09T19:54:25.160Z,15.83
2018-10-09T19:56:53.210Z,15.72
2018-10-09T19:59:20.776Z,15.65
2018-10-09T20:01:48.162Z,15.95
2018-10-09T20:04:15.992Z,16.70
2018-10-09T20:06:43.913Z,18.27
2018-10-09T20:09:12.791Z,14.85
2018-10-09T20:11:40.668Z,14.23
2018-10-09T20:14:08.763Z,15.13
2018-10-09T20:16:36.356Z,15.20
2018-10-09T20:19:04.434Z,14.18
2018-10-09T20:21:31.878Z,16.12
2018-10-09T20:23:59.329Z,15.23
2018-10-09T20:26:27.144Z,18.07
2018-10-09T20:28:54.980Z,13.53
2018-10-09T20:31:22.522Z,14.98
2018-10-09T20:33:50.261Z,15.17
2018-10-09T20:36:18.075Z,14.15
2018-10-09T20:38:45.642Z,13.45
2018-10-09T20:41:13.392Z,15.53
2018-10-09T20:43:40.864Z,15.58
2018-10-09T20:46:08.653Z,16.52
2018-10-09T20:48:36.477Z,13.78
2018-10-09T20:51:03.969Z,14.40
2018-10-09T20:53:31.432Z,12.95
2018-10-09T20:55:59.168Z,18.35
2018-10-09T20:58:26.925Z,16.23
2018-10-09T21:00:54.511Z,13.18
2018-10-09T21:03:22.667Z,10.32
2018-10-09T21:05:50.254Z,13.48
2018-10-09T21:08:17.727Z,11.43
2018-10-09T21:10:45.657Z,16.57
2018-10-09T21:13:13.360Z,14.83
2018-10-09T21:15:40.885Z,16.12
2018-10-09T21:18:08.628Z,14.15
2018-10-09T21:20:36.707Z,14.10
2018-10-09T21:23:04.212Z,12.70
2018-10-09T21:25:31.704Z,14.98
2018-10-09T21:27:59.173Z,17.35
2018-10-09T21:30:27.043Z,14.38
2018-10-09T21:32:55.115Z,18.05
2018-10-09T21:35:22.940Z,17.42
2018-10-09T21:37:50.359Z,17.75
2018-10-09T21:40:17.879Z,16.82
2018-10-09T21:42:45.355Z,15.53
2018-10-09T21:45:12.925Z,16.85
2018-10-09T21:47:44.759Z,17.75
2018-10-09T21:50:12.263Z,17.10
2018-10-09T21:52:39.752Z,17.05
2018-10-09T21:55:07.218Z,17.95
2018-10-09T21:57:34.737Z,18.93
2018-10-09T22:00:02.579Z,18.20
2018-10-09T22:02:30.349Z,19.50
2018-10-09T22:04:58.129Z,15.83
2018-10-09T22:07:25.673Z,23.10
2018-10-09T22:09:53.470Z,17.12
2018-10-09T22:12:21.042Z,18.60
2018-10-09T22:14:48.563Z,23.20
2018-10-09T22:17:16.630Z,18.00
2018-10-09T22:19:44.425Z,15.85
2018-10-09T22:22:11.932Z,18.23
2018-10-09T22:24:39.740Z,19.87
2018-10-09T22:27:07.289Z,20.12
2018-10-09T22:29:35.349Z,18.82
2018-10-09T22:32:03.319Z,19.42
2018-10-09T22:34:31.068Z,18.20
2018-10-09T22:36:58.877Z,23.02
2018-10-09T22:39:26.648Z,19.37
2018-10-09T22:41:54.185Z,16.87
2018-10-09T22:44:22.352Z,19.05
2018-10-09T22:46:49.860Z,15.48
2018-10-09T22:49:17.420Z,16.05
2018-10-09T22:51:44.987Z,17.35
2018-10-09T22:54:13.164Z,18.23
2018-10-09T22:56:41.268Z,13.80
2018-10-09T22:59:09.097Z,15.48
2018-10-09T23:01:36.641Z,16.93
2018-10-09T23:04:04.729Z,18.77
2018-10-09T23:06:32.581Z,14.33
2018-10-09T23:09:00.812Z,18.50
2018-10-09T23:11:28.240Z,16.23
2018-10-09T23:13:55.703Z,14.38
2018-10-09T23:16:23.214Z,15.40
2018-10-09T23:18:50.677Z,15.13
2018-10-09T23:21:18.440Z,17.05
2018-10-09T23:23:46.260Z,16.73
2018-10-09T23:26:14.051Z,20.10
2018-10-09T23:28:41.804Z,17.52
2018-10-09T23:31:09.673Z,15.75
2018-10-09T23:33:37.423Z,15.72
2018-10-09T23:36:04.904Z,15.13
2018-10-09T23:38:32.693Z,16.90
2018-10-09T23:41:00.431Z,16.47
2018-10-09T23:43:27.971Z,21.27
2018-10-09T23:45:55.443Z,15.93
2018-10-09T23:48:23.517Z,18.02
2018-10-09T23:50:51.483Z,14.03
2018-10-09T23:53:19.247Z,21.85
2018-10-09T23:55:47.387Z,20.80
2018-10-09T23:58:14.920Z,21.80
